createdAt,value
2023-02-02T00:00:04.087Z,3.57
2023-02-02T00:00:36.371Z,3.67
2023-02-02T00:01:09.401Z,3.87
2023-02-02T00:01:44.905Z,4.30
2023-02-02T00:02:17.203Z,3.80
2023-02-02T00:02:49.557Z,3.37
2023-02-02T00:03:21.884Z,3.87
2023-02-02T00:03:56.001Z,3.80
2023-02-02T00:04:31.135Z,4.10
2023-02-02T00:05:03.788Z,4.17
2023-02-02T00:05:36.090Z,4.00
2023-02-02T00:06:08.881Z,4.27
2023-02-02T00:06:41.196Z,3.80
2023-02-02T00:07:13.439Z,3.47
2023-02-02T00:07:45.724Z,3.30
2023-02-02T00:08:20.184Z,3.83
2023-02-02T00:08:52.633Z,3.97
2023-02-02T00:09:29.119Z,4.07
2023-02-02T00:10:01.567Z,3.93
2023-02-02T00:10:33.850Z,3.77
2023-02-02T00:11:06.617Z,3.40
2023-02-02T00:11:38.860Z,3.80
2023-02-02T00:12:11.141Z,3.30
2023-02-02T00:12:43.410Z,3.80
2023-02-02T00:13:15.710Z,4.03
2023-02-02T00:13:47.979Z,3.93
2023-02-02T00:14:20.283Z,3.73
2023-02-02T00:14:52.571Z,3.73
2023-02-02T00:15:25.874Z,3.67
2023-02-02T00:15:58.341Z,3.67
2023-02-02T00:16:30.644Z,3.77
2023-02-02T00:17:04.122Z,3.73
2023-02-02T00:17:36.469Z,3.77
2023-02-02T00:18:08.733Z,3.73
2023-02-02T00:18:41.023Z,3.87
2023-02-02T00:19:16.083Z,4.03
2023-02-02T00:19:49.037Z,3.93
2023-02-02T00:20:22.291Z,3.10
2023-02-02T00:20:54.645Z,3.67
2023-02-02T00:21:27.728Z,3.17
2023-02-02T00:22:00.301Z,3.53
2023-02-02T00:22:32.576Z,3.77
2023-02-02T00:23:04.956Z,3.20
2023-02-02T00:23:37.202Z,3.43
2023-02-02T00:24:11.715Z,3.53
2023-02-02T00:24:43.972Z,3.50
2023-02-02T00:25:16.291Z,3.03
2023-02-02T00:25:50.257Z,3.13
2023-02-02T00:26:22.920Z,3.27
2023-02-02T00:26:57.707Z,2.97
2023-02-02T00:27:29.991Z,2.93
2023-02-02T00:28:02.304Z,2.97
2023-02-02T00:28:34.608Z,3.33
2023-02-02T00:29:08.768Z,3.50
2023-02-02T00:29:41.175Z,3.30
2023-02-02T00:30:14.184Z,3.47
2023-02-02T00:30:46.502Z,3.20
2023-02-02T00:31:18.832Z,3.07
2023-02-02T00:31:51.861Z,3.23
2023-02-02T00:32:24.223Z,3.17
2023-02-02T00:32:56.573Z,3.10
2023-02-02T00:33:28.883Z,3.17
2023-02-02T00:34:01.160Z,2.97
2023-02-02T00:34:33.448Z,2.47
2023-02-02T00:35:05.953Z,2.43
2023-02-02T00:35:40.778Z,2.53
2023-02-02T00:36:13.108Z,3.03
2023-02-02T00:36:45.671Z,3.20
2023-02-02T00:37:17.935Z,3.10
2023-02-02T00:37:50.194Z,3.00
2023-02-02T00:38:22.500Z,3.00
2023-02-02T00:38:54.844Z,2.80
2023-02-02T00:39:27.212Z,2.87
2023-02-02T00:39:59.559Z,3.10
2023-02-02T00:40:31.832Z,2.93
2023-02-02T00:41:04.884Z,3.13
2023-02-02T00:41:37.137Z,2.90
2023-02-02T00:42:12.345Z,2.87
2023-02-02T00:42:49.073Z,2.53
2023-02-02T00:43:21.359Z,2.67
2023-02-02T00:44:13.908Z,3.10
2023-02-02T00:45:15.401Z,2.80
2023-02-02T00:45:48.753Z,3.07
2023-02-02T00:46:21.073Z,2.90
2023-02-02T00:46:53.354Z,3.00
2023-02-02T00:47:25.644Z,2.77
2023-02-02T00:47:57.891Z,2.97
2023-02-02T00:48:30.151Z,2.27
2023-02-02T00:49:02.489Z,2.77
2023-02-02T00:49:34.748Z,2.53
2023-02-02T00:50:07.393Z,2.37
2023-02-02T00:50:39.643Z,2.50
2023-02-02T00:51:11.984Z,2.33
2023-02-02T00:51:44.231Z,2.80
2023-02-02T00:52:16.512Z,2.77
2023-02-02T00:52:49.352Z,2.27
2023-02-02T00:53:21.615Z,2.50
2023-02-02T00:53:53.891Z,2.43
2023-02-02T00:54:26.607Z,2.73
2023-02-02T00:54:58.896Z,2.57
2023-02-02T00:55:31.278Z,2.63
2023-02-02T00:56:03.690Z,2.53
2023-02-02T00:56:36.033Z,2.40
2023-02-02T00:57:13.552Z,2.40
2023-02-02T00:57:46.148Z,2.67
2023-02-02T00:58:18.425Z,2.80
2023-02-02T00:58:50.708Z,2.50
2023-02-02T00:59:23.051Z,2.20
2023-02-02T00:59:55.331Z,2.30
2023-02-02T01:00:27.810Z,2.47
2023-02-02T01:01:02.866Z,2.27
2023-02-02T01:01:35.810Z,2.30
2023-02-02T01:02:10.712Z,2.33
2023-02-02T01:02:43.632Z,2.40
2023-02-02T01:03:16.266Z,2.67
2023-02-02T01:03:50.099Z,2.43
2023-02-02T01:04:22.397Z,2.07
2023-02-02T01:04:54.681Z,2.40
2023-02-02T01:05:26.988Z,2.43
2023-02-02T01:05:59.221Z,2.23
2023-02-02T01:06:31.543Z,2.50
2023-02-02T01:07:03.896Z,2.33
2023-02-02T01:07:36.243Z,2.13
2023-02-02T01:08:08.648Z,2.57
2023-02-02T01:08:41.405Z,2.40
2023-02-02T01:09:13.744Z,2.70
2023-02-02T01:09:46.010Z,2.43
2023-02-02T01:10:19.056Z,2.63
2023-02-02T01:10:51.429Z,2.67
2023-02-02T01:11:25.571Z,2.47
2023-02-02T01:11:58.108Z,2.50
2023-02-02T01:12:30.670Z,2.80
2023-02-02T01:13:02.990Z,3.00
2023-02-02T01:13:35.752Z,3.03
2023-02-02T01:14:08.089Z,2.27
2023-02-02T01:14:40.383Z,2.83
2023-02-02T01:15:13.333Z,2.90
2023-02-02T01:15:45.598Z,2.97
2023-02-02T01:16:18.103Z,2.80
2023-02-02T01:16:50.436Z,3.03
2023-02-02T01:17:22.793Z,2.50
2023-02-02T01:17:55.087Z,2.53
2023-02-02T01:18:28.099Z,2.37
2023-02-02T01:19:00.442Z,2.73
2023-02-02T01:19:32.868Z,2.73
2023-02-02T01:20:06.805Z,2.77
2023-02-02T01:20:39.073Z,2.93
2023-02-02T01:21:12.737Z,2.63
2023-02-02T01:21:45.071Z,2.77
2023-02-02T01:22:17.667Z,2.70
2023-02-02T01:22:50.647Z,2.77
2023-02-02T01:23:24.176Z,2.90
2023-02-02T01:23:56.493Z,2.50
2023-02-02T01:24:28.799Z,2.47
2023-02-02T01:25:01.640Z,2.90
2023-02-02T01:25:38.230Z,2.77
2023-02-02T01:26:12.732Z,2.97
2023-02-02T01:26:45.098Z,3.13
2023-02-02T01:27:17.709Z,2.83
2023-02-02T01:27:50.003Z,2.50
2023-02-02T01:28:23.061Z,3.27
2023-02-02T01:28:55.384Z,2.77
2023-02-02T01:29:27.681Z,3.37
2023-02-02T01:29:59.953Z,3.27
2023-02-02T01:30:32.233Z,3.30
2023-02-02T01:31:14.520Z,3.03
2023-02-02T01:31:47.049Z,3.27
2023-02-02T01:32:19.375Z,3.00
2023-02-02T01:32:51.657Z,2.73
2023-02-02T01:33:25.159Z,3.23
2023-02-02T01:33:57.411Z,3.50
2023-02-02T01:34:29.870Z,3.30
2023-02-02T01:35:02.144Z,3.13
2023-02-02T01:35:34.482Z,3.10
2023-02-02T01:36:13.384Z,2.87
2023-02-02T01:36:45.676Z,3.03
2023-02-02T01:37:18.184Z,3.40
2023-02-02T01:37:50.456Z,3.03
2023-02-02T01:38:24.294Z,3.20
2023-02-02T01:38:56.592Z,3.17
2023-02-02T01:39:28.857Z,3.07
2023-02-02T01:40:01.171Z,2.97
2023-02-02T01:40:33.448Z,2.83
2023-02-02T01:41:07.176Z,2.67
2023-02-02T01:41:41.974Z,2.93
2023-02-02T01:42:19.807Z,2.67
2023-02-02T01:42:52.062Z,2.37
2023-02-02T01:43:28.520Z,3.10
2023-02-02T01:44:04.309Z,2.93
2023-02-02T01:45:18.165Z,2.40
2023-02-02T01:45:52.982Z,2.73
2023-02-02T01:46:36.935Z,2.87
2023-02-02T01:47:09.239Z,2.57
2023-02-02T01:47:50.077Z,2.30
2023-02-02T01:48:27.241Z,2.53
2023-02-02T01:49:10.043Z,2.33
2023-02-02T01:49:42.474Z,2.30
2023-02-02T01:50:17.056Z,2.50
2023-02-02T01:50:54.097Z,2.00
2023-02-02T01:51:42.786Z,2.33
2023-02-02T01:52:18.458Z,2.07
2023-02-02T01:52:54.105Z,1.97
2023-02-02T01:53:27.448Z,2.13
2023-02-02T01:54:01.135Z,2.33
2023-02-02T01:54:40.672Z,2.57
2023-02-02T01:55:15.714Z,2.60
2023-02-02T01:55:49.522Z,2.40
2023-02-02T01:56:36.873Z,2.07
2023-02-02T01:57:15.579Z,2.23
2023-02-02T01:57:55.131Z,2.13
2023-02-02T01:58:35.024Z,2.30
2023-02-02T01:59:07.916Z,1.90
2023-02-02T01:59:41.788Z,2.27
2023-02-02T02:00:16.677Z,2.00
2023-02-02T02:00:49.616Z,2.27
2023-02-02T02:01:22.100Z,2.27
2023-02-02T02:01:55.445Z,1.87
2023-02-02T02:02:29.643Z,2.13
2023-02-02T02:03:08.813Z,2.50
2023-02-02T02:03:41.131Z,2.37
2023-02-02T02:04:14.268Z,2.37
2023-02-02T02:04:48.543Z,2.00
2023-02-02T02:05:48.111Z,2.07
2023-02-02T02:06:21.180Z,1.83
2023-02-02T02:06:53.931Z,2.00
2023-02-02T02:07:26.237Z,2.13
2023-02-02T02:08:08.995Z,2.00
2023-02-02T02:08:56.672Z,2.10
2023-02-02T02:09:28.925Z,2.03
2023-02-02T02:10:01.231Z,1.97
2023-02-02T02:10:34.946Z,2.23
2023-02-02T02:11:07.264Z,2.00
2023-02-02T02:11:39.571Z,1.87
2023-02-02T02:12:16.009Z,2.00
2023-02-02T02:12:49.076Z,1.77
2023-02-02T02:13:43.917Z,2.20
2023-02-02T02:14:35.463Z,2.03
2023-02-02T02:15:27.062Z,2.17
2023-02-02T02:16:19.768Z,2.23
2023-02-02T02:17:18.326Z,1.97
2023-02-02T02:18:06.376Z,1.70
2023-02-02T02:18:50.558Z,1.93
2023-02-02T02:20:09.822Z,1.90
2023-02-02T02:21:37.733Z,1.47
2023-02-02T02:22:35.480Z,1.87
2023-02-02T02:23:51.974Z,1.67
2023-02-02T02:25:50.263Z,1.70
2023-02-02T02:26:37.851Z,1.60
2023-02-02T02:27:28.737Z,1.67
2023-02-02T02:28:12.823Z,1.63
2023-02-02T02:28:56.937Z,1.40
2023-02-02T02:29:49.303Z,1.57
2023-02-02T02:30:21.548Z,1.60
2023-02-02T02:31:20.155Z,1.60
2023-02-02T02:32:01.353Z,1.67
2023-02-02T02:32:52.741Z,1.50
2023-02-02T02:33:45.020Z,1.47
2023-02-02T02:34:39.880Z,1.33
2023-02-02T02:35:37.408Z,1.50
2023-02-02T02:36:19.729Z,1.40
2023-02-02T02:37:05.340Z,1.57
2023-02-02T02:37:51.029Z,1.30
2023-02-02T02:38:56.764Z,1.40
2023-02-02T02:39:34.412Z,1.43
2023-02-02T02:40:22.096Z,1.33
2023-02-02T02:41:01.093Z,1.30
2023-02-02T02:41:41.548Z,1.50
2023-02-02T02:42:20.135Z,1.60
2023-02-02T02:42:58.687Z,1.30
2023-02-02T02:43:37.962Z,1.27
2023-02-02T02:44:16.264Z,1.23
2023-02-02T02:44:50.625Z,1.40
2023-02-02T02:45:26.514Z,1.33
2023-02-02T02:45:59.471Z,1.20
2023-02-02T02:46:32.373Z,1.27
2023-02-02T02:47:05.083Z,1.03
2023-02-02T02:47:38.973Z,1.10
2023-02-02T02:48:12.040Z,1.20
2023-02-02T02:48:46.943Z,1.23
2023-02-02T02:49:19.636Z,1.27
2023-02-02T02:49:51.888Z,1.43
2023-02-02T02:50:24.130Z,1.33
2023-02-02T02:51:29.515Z,1.43
2023-02-02T02:52:01.777Z,1.70
2023-02-02T02:52:36.235Z,1.20
2023-02-02T02:53:15.627Z,1.27
2023-02-02T02:53:47.876Z,1.27
2023-02-02T02:54:31.078Z,1.30
2023-02-02T02:55:06.896Z,1.30
2023-02-02T02:56:18.766Z,1.10
2023-02-02T02:57:03.775Z,1.43
2023-02-02T02:57:57.422Z,1.13
2023-02-02T02:58:47.316Z,1.43
2023-02-02T02:59:34.573Z,1.30
2023-02-02T03:00:25.020Z,1.37
2023-02-02T03:01:07.784Z,1.43
2023-02-02T03:01:55.730Z,1.43
2023-02-02T03:02:43.165Z,1.30
2023-02-02T03:03:31.068Z,1.60
2023-02-02T03:04:24.347Z,1.50
2023-02-02T03:05:23.634Z,1.70
2023-02-02T03:06:05.101Z,1.77
2023-02-02T03:06:45.514Z,1.70
2023-02-02T03:07:31.187Z,1.53
2023-02-02T03:08:31.424Z,2.00
2023-02-02T03:09:11.035Z,1.70
2023-02-02T03:09:46.314Z,1.73
2023-02-02T03:10:24.216Z,1.57
2023-02-02T03:10:58.961Z,1.63
2023-02-02T03:11:31.526Z,1.63
2023-02-02T03:12:04.069Z,1.50
2023-02-02T03:12:47.638Z,1.73
2023-02-02T03:13:20.098Z,1.93
2023-02-02T03:13:53.034Z,1.60
2023-02-02T03:14:25.541Z,2.23
2023-02-02T03:14:57.803Z,2.10
2023-02-02T03:15:30.115Z,2.03
2023-02-02T03:16:02.691Z,1.70
2023-02-02T03:16:36.335Z,1.97
2023-02-02T03:17:08.603Z,2.10
2023-02-02T03:17:42.818Z,1.87
2023-02-02T03:18:19.473Z,2.13
2023-02-02T03:18:51.783Z,2.33
2023-02-02T03:19:24.063Z,2.00
2023-02-02T03:19:56.309Z,2.00
2023-02-02T03:20:28.767Z,1.77
2023-02-02T03:21:01.459Z,1.83
2023-02-02T03:21:34.705Z,1.87
2023-02-02T03:22:06.941Z,2.00
2023-02-02T03:22:39.649Z,1.67
2023-02-02T03:23:12.704Z,2.03
2023-02-02T03:23:44.998Z,2.13
2023-02-02T03:24:17.283Z,1.97
2023-02-02T03:24:49.574Z,1.90
2023-02-02T03:25:21.946Z,1.90
2023-02-02T03:25:55.590Z,2.10
2023-02-02T03:26:28.233Z,2.07
2023-02-02T03:27:01.048Z,2.20
2023-02-02T03:27:33.508Z,2.07
2023-02-02T03:28:06.960Z,2.07
2023-02-02T03:28:39.519Z,1.87
2023-02-02T03:29:11.922Z,1.83
2023-02-02T03:29:44.296Z,1.90
2023-02-02T03:30:17.482Z,1.90
2023-02-02T03:30:51.640Z,1.93
2023-02-02T03:31:27.150Z,2.07
2023-02-02T03:31:59.494Z,1.93
2023-02-02T03:32:32.116Z,1.93
2023-02-02T03:33:05.443Z,2.13
2023-02-02T03:33:38.668Z,2.10
2023-02-02T03:34:10.956Z,2.13
2023-02-02T03:34:43.252Z,1.90
2023-02-02T03:35:15.564Z,2.13
2023-02-02T03:35:47.978Z,2.43
2023-02-02T03:36:20.265Z,2.23
2023-02-02T03:36:52.536Z,2.10
2023-02-02T03:37:24.786Z,2.13
2023-02-02T03:37:57.257Z,2.10
2023-02-02T03:38:29.581Z,1.87
2023-02-02T03:39:01.943Z,1.97
2023-02-02T03:39:34.244Z,2.30
2023-02-02T03:40:06.976Z,2.33
2023-02-02T03:40:40.320Z,1.93
2023-02-02T03:41:12.645Z,1.77
2023-02-02T03:41:44.970Z,1.93
2023-02-02T03:42:17.241Z,1.93
2023-02-02T03:42:49.565Z,1.97
2023-02-02T03:43:24.188Z,1.97
2023-02-02T03:43:56.468Z,2.03
2023-02-02T03:44:28.750Z,2.00
2023-02-02T03:45:01.070Z,1.93
2023-02-02T03:45:35.507Z,2.03
2023-02-02T03:46:07.963Z,2.03
2023-02-02T03:46:40.344Z,2.00
2023-02-02T03:47:12.609Z,2.27
2023-02-02T03:47:44.920Z,1.93
2023-02-02T03:48:17.191Z,1.93
2023-02-02T03:48:49.469Z,2.00
2023-02-02T03:49:22.212Z,2.00
2023-02-02T03:49:54.461Z,1.90
2023-02-02T03:50:26.756Z,1.90
2023-02-02T03:50:59.033Z,1.87
2023-02-02T03:51:31.284Z,1.90
2023-02-02T03:52:04.999Z,1.83
2023-02-02T03:53:18.563Z,2.10
2023-02-02T03:53:50.897Z,2.13
2023-02-02T03:54:23.566Z,2.13
2023-02-02T03:54:55.833Z,1.87
2023-02-02T03:55:28.169Z,2.00
2023-02-02T03:56:00.464Z,1.97
2023-02-02T03:56:32.744Z,1.90
2023-02-02T03:57:05.030Z,1.73
2023-02-02T03:57:37.391Z,1.83
2023-02-02T03:58:09.709Z,1.87
2023-02-02T03:58:42.002Z,1.93
2023-02-02T03:59:14.274Z,1.90
2023-02-02T03:59:46.632Z,2.10
2023-02-02T04:00:19.274Z,2.07
2023-02-02T04:00:51.678Z,2.07
2023-02-02T04:01:29.050Z,1.67
2023-02-02T04:02:01.383Z,1.53
2023-02-02T04:02:33.685Z,1.77
2023-02-02T04:03:06.171Z,1.90
2023-02-02T04:03:38.575Z,1.83
2023-02-02T04:04:10.837Z,1.97
2023-02-02T04:04:43.088Z,1.97
2023-02-02T04:05:15.419Z,1.73
2023-02-02T04:05:51.012Z,1.83
2023-02-02T04:06:24.810Z,1.63
2023-02-02T04:06:58.678Z,1.73
2023-02-02T04:07:30.958Z,1.87
2023-02-02T04:08:03.308Z,1.77
2023-02-02T04:08:35.593Z,1.87
2023-02-02T04:09:07.907Z,1.67
2023-02-02T04:09:40.326Z,1.80
2023-02-02T04:10:12.642Z,1.73
2023-02-02T04:10:44.927Z,1.47
2023-02-02T04:11:17.751Z,1.63
2023-02-02T04:11:50.039Z,1.73
2023-02-02T04:12:22.312Z,1.57
2023-02-02T04:12:54.611Z,2.07
2023-02-02T04:13:26.946Z,2.50
2023-02-02T04:13:59.244Z,2.40
2023-02-02T04:14:31.528Z,1.57
2023-02-02T04:15:04.142Z,1.80
2023-02-02T04:15:36.427Z,1.93
2023-02-02T04:16:09.228Z,1.97
2023-02-02T04:16:41.582Z,1.73
2023-02-02T04:17:13.886Z,1.73
2023-02-02T04:17:46.175Z,1.53
2023-02-02T04:18:18.426Z,1.53
2023-02-02T04:18:50.762Z,1.57
2023-02-02T04:19:23.014Z,1.57
2023-02-02T04:19:58.201Z,1.50
2023-02-02T04:20:30.536Z,1.67
2023-02-02T04:21:02.867Z,1.90
2023-02-02T04:21:35.135Z,1.83
2023-02-02T04:22:07.472Z,1.90
2023-02-02T04:22:39.714Z,1.77
2023-02-02T04:23:11.995Z,1.67
2023-02-02T04:23:44.276Z,2.17
2023-02-02T04:24:16.556Z,1.73
2023-02-02T04:24:48.871Z,1.23
2023-02-02T04:25:21.167Z,1.53
2023-02-02T04:25:53.698Z,1.63
2023-02-02T04:26:26.326Z,1.73
2023-02-02T04:26:58.675Z,1.57
2023-02-02T04:27:32.684Z,1.67
2023-02-02T04:28:05.120Z,1.87
2023-02-02T04:28:37.412Z,1.67
2023-02-02T04:29:09.682Z,2.13
2023-02-02T04:29:41.958Z,2.00
2023-02-02T04:30:14.414Z,2.27
2023-02-02T04:30:46.776Z,1.90
2023-02-02T04:31:19.503Z,1.80
2023-02-02T04:31:52.072Z,1.70
2023-02-02T04:32:24.378Z,1.60
2023-02-02T04:32:56.657Z,1.77
2023-02-02T04:33:29.284Z,1.73
2023-02-02T04:34:01.801Z,1.43
2023-02-02T04:34:34.091Z,1.33
2023-02-02T04:35:06.770Z,1.40
2023-02-02T04:35:39.021Z,1.53
2023-02-02T04:36:11.361Z,2.10
2023-02-02T04:36:44.567Z,1.70
2023-02-02T04:37:16.887Z,2.00
2023-02-02T04:37:49.170Z,1.70
2023-02-02T04:38:21.442Z,1.47
2023-02-02T04:38:55.273Z,1.37
2023-02-02T04:39:27.718Z,1.43
2023-02-02T04:40:00.069Z,1.60
2023-02-02T04:40:32.397Z,1.77
2023-02-02T04:41:14.631Z,1.70
2023-02-02T04:41:47.044Z,1.67
2023-02-02T04:42:19.366Z,1.80
2023-02-02T04:42:51.639Z,2.00
2023-02-02T04:43:23.887Z,1.80
2023-02-02T04:43:56.137Z,1.33
2023-02-02T04:44:28.646Z,1.43
2023-02-02T04:45:00.937Z,1.47
2023-02-02T04:45:34.024Z,1.60
2023-02-02T04:46:06.639Z,1.43
2023-02-02T04:46:38.941Z,1.67
2023-02-02T04:47:11.212Z,1.53
2023-02-02T04:47:43.515Z,1.73
2023-02-02T04:48:15.749Z,1.53
2023-02-02T04:48:49.674Z,1.57
2023-02-02T04:49:21.987Z,1.60
2023-02-02T04:49:54.243Z,1.67
2023-02-02T04:50:26.495Z,1.73
2023-02-02T04:51:05.256Z,1.70
2023-02-02T04:51:39.021Z,1.83
2023-02-02T04:52:12.184Z,1.77
2023-02-02T04:52:44.542Z,1.73
2023-02-02T04:53:16.788Z,1.60
2023-02-02T04:53:49.049Z,1.40
2023-02-02T04:54:21.568Z,1.37
2023-02-02T04:54:53.817Z,1.73
2023-02-02T04:55:26.265Z,1.70
2023-02-02T04:56:08.624Z,1.53
2023-02-02T04:56:40.891Z,1.73
2023-02-02T04:57:13.237Z,2.00
2023-02-02T04:57:45.603Z,1.73
2023-02-02T04:58:17.894Z,2.07
2023-02-02T04:58:53.628Z,1.83
2023-02-02T04:59:30.073Z,1.53
2023-02-02T05:00:02.407Z,1.70
2023-02-02T05:00:36.873Z,1.67
2023-02-02T05:01:12.099Z,1.97
2023-02-02T05:01:44.388Z,1.90
2023-02-02T05:02:16.651Z,1.77
2023-02-02T05:02:48.972Z,1.63
2023-02-02T05:03:21.237Z,1.83
2023-02-02T05:03:53.609Z,2.13
2023-02-02T05:04:26.034Z,1.77
2023-02-02T05:04:58.344Z,1.77
2023-02-02T05:05:30.612Z,1.90
2023-02-02T05:06:03.459Z,1.93
2023-02-02T05:06:35.812Z,1.47
2023-02-02T05:07:08.131Z,1.77
2023-02-02T05:07:40.795Z,1.80
2023-02-02T05:08:13.062Z,1.77
2023-02-02T05:08:46.381Z,2.07
2023-02-02T05:09:18.655Z,2.03
2023-02-02T05:09:50.886Z,1.90
2023-02-02T05:10:23.129Z,1.73
2023-02-02T05:10:55.444Z,1.77
2023-02-02T05:11:27.737Z,1.93
2023-02-02T05:12:00.010Z,1.73
2023-02-02T05:12:32.335Z,1.50
2023-02-02T05:13:04.586Z,1.43
2023-02-02T05:13:37.100Z,1.83
2023-02-02T05:14:09.621Z,2.10
2023-02-02T05:14:41.861Z,1.97
2023-02-02T05:15:14.142Z,1.70
2023-02-02T05:15:46.498Z,1.67
2023-02-02T05:16:19.648Z,1.83
2023-02-02T05:16:53.738Z,1.57
2023-02-02T05:17:26.142Z,1.30
2023-02-02T05:17:58.998Z,2.07
2023-02-02T05:18:34.745Z,5.10
2023-02-02T05:19:07.042Z,3.40
2023-02-02T05:19:39.381Z,2.30
2023-02-02T05:20:12.312Z,2.17
2023-02-02T05:20:44.622Z,2.07
2023-02-02T05:21:16.914Z,1.67
2023-02-02T05:21:51.193Z,1.80
2023-02-02T05:22:23.729Z,2.40
2023-02-02T05:22:55.995Z,2.73
2023-02-02T05:23:29.310Z,2.67
2023-02-02T05:24:02.801Z,2.33
2023-02-02T05:24:35.219Z,2.17
2023-02-02T05:25:08.314Z,1.93
2023-02-02T05:25:40.574Z,2.03
2023-02-02T05:26:20.939Z,1.93
2023-02-02T05:26:58.501Z,2.03
2023-02-02T05:27:30.913Z,2.00
2023-02-02T05:28:03.259Z,1.77
2023-02-02T05:28:35.744Z,1.77
2023-02-02T05:29:09.395Z,1.83
2023-02-02T05:29:41.688Z,1.67
2023-02-02T05:30:15.003Z,1.70
2023-02-02T05:30:47.816Z,2.17
2023-02-02T05:31:20.532Z,2.10
2023-02-02T05:31:53.761Z,2.10
2023-02-02T05:32:26.123Z,2.40
2023-02-02T05:32:58.467Z,5.40
2023-02-02T05:33:30.747Z,6.07
2023-02-02T05:34:03.113Z,3.63
2023-02-02T05:34:35.409Z,3.20
2023-02-02T05:35:08.592Z,3.03
2023-02-02T05:35:40.957Z,2.60
2023-02-02T05:36:13.598Z,3.07
2023-02-02T05:36:45.890Z,2.97
2023-02-02T05:37:18.148Z,2.43
2023-02-02T05:37:50.422Z,2.57
2023-02-02T05:38:22.710Z,1.83
2023-02-02T05:38:55.061Z,1.73
2023-02-02T05:39:27.423Z,1.83
2023-02-02T05:39:59.723Z,1.90
2023-02-02T05:40:31.986Z,2.50
2023-02-02T05:41:04.653Z,2.10
2023-02-02T05:41:36.961Z,1.90
2023-02-02T05:42:09.250Z,2.00
2023-02-02T05:42:41.531Z,1.90
2023-02-02T05:43:13.809Z,2.17
2023-02-02T05:43:46.086Z,1.93
2023-02-02T05:44:18.330Z,2.00
2023-02-02T05:44:50.653Z,2.40
2023-02-02T05:45:24.378Z,2.07
2023-02-02T05:45:57.018Z,2.03
2023-02-02T05:46:29.708Z,1.97
2023-02-02T05:47:02.209Z,2.00
2023-02-02T05:47:35.729Z,2.67
2023-02-02T05:48:12.821Z,2.37
2023-02-02T05:48:45.132Z,2.37
2023-02-02T05:49:17.417Z,2.33
2023-02-02T05:49:49.837Z,2.50
2023-02-02T05:50:22.720Z,2.13
2023-02-02T05:51:06.929Z,2.07
2023-02-02T05:51:50.110Z,2.23
2023-02-02T05:52:24.689Z,2.33
2023-02-02T05:52:58.838Z,3.10
2023-02-02T05:53:31.959Z,4.43
2023-02-02T05:54:04.403Z,5.17
2023-02-02T05:54:36.688Z,5.07
2023-02-02T05:55:10.272Z,5.47
2023-02-02T05:55:42.575Z,4.37
2023-02-02T05:56:15.928Z,3.40
2023-02-02T05:56:50.261Z,2.57
2023-02-02T05:57:22.508Z,2.27
2023-02-02T05:57:54.749Z,2.10
2023-02-02T05:58:28.037Z,2.10
2023-02-02T05:59:00.417Z,2.10
2023-02-02T05:59:32.664Z,2.57
2023-02-02T06:00:05.942Z,2.60
2023-02-02T06:00:38.204Z,2.53
2023-02-02T06:01:10.734Z,2.60
2023-02-02T06:01:43.906Z,3.03
2023-02-02T06:02:16.221Z,2.73
2023-02-02T06:02:48.553Z,3.17
2023-02-02T06:03:20.947Z,3.43
2023-02-02T06:03:53.358Z,3.03
2023-02-02T06:04:25.703Z,2.97
2023-02-02T06:04:58.016Z,2.27
2023-02-02T06:05:30.274Z,2.23
2023-02-02T06:06:02.903Z,2.90
2023-02-02T06:06:37.886Z,3.23
2023-02-02T06:07:10.226Z,2.93
2023-02-02T06:07:42.739Z,2.40
2023-02-02T06:08:15.003Z,3.57
2023-02-02T06:08:47.347Z,3.40
2023-02-02T06:09:19.628Z,2.77
2023-02-02T06:09:51.885Z,2.77
2023-02-02T06:10:24.179Z,3.33
2023-02-02T06:10:56.503Z,3.10
2023-02-02T06:11:28.847Z,3.83
2023-02-02T06:12:01.194Z,4.10
2023-02-02T06:12:33.572Z,3.73
2023-02-02T06:13:05.907Z,3.07
2023-02-02T06:13:38.615Z,2.67
2023-02-02T06:14:11.089Z,2.40
2023-02-02T06:14:43.341Z,2.80
2023-02-02T06:15:15.619Z,2.43
2023-02-02T06:15:48.433Z,2.73
2023-02-02T06:16:20.961Z,2.87
2023-02-02T06:16:53.203Z,2.93
2023-02-02T06:17:25.561Z,2.80
2023-02-02T06:17:58.752Z,3.03
2023-02-02T06:18:31.327Z,3.00
2023-02-02T06:19:04.101Z,2.63
2023-02-02T06:19:36.449Z,3.07
2023-02-02T06:20:09.338Z,3.50
2023-02-02T06:20:41.929Z,3.30
2023-02-02T06:21:14.671Z,3.43
2023-02-02T06:21:47.100Z,3.37
2023-02-02T06:22:19.356Z,3.03
2023-02-02T06:22:51.891Z,2.83
2023-02-02T06:23:24.226Z,2.77
2023-02-02T06:23:57.911Z,2.67
2023-02-02T06:24:30.200Z,2.67
2023-02-02T06:25:05.499Z,2.97
2023-02-02T06:25:37.884Z,2.53
2023-02-02T06:26:10.180Z,2.67
2023-02-02T06:26:42.543Z,3.03
2023-02-02T06:27:14.830Z,2.67
2023-02-02T06:27:49.419Z,3.57
2023-02-02T06:28:21.694Z,4.20
2023-02-02T06:28:55.018Z,3.13
2023-02-02T06:29:27.341Z,3.17
2023-02-02T06:29:59.706Z,3.67
2023-02-02T06:30:31.988Z,3.20
2023-02-02T06:31:09.590Z,3.03
2023-02-02T06:31:42.198Z,3.53
2023-02-02T06:32:14.605Z,3.47
2023-02-02T06:32:49.192Z,3.10
2023-02-02T06:33:21.511Z,3.47
2023-02-02T06:33:56.175Z,3.23
2023-02-02T06:34:28.490Z,3.43
2023-02-02T06:35:00.769Z,3.37
2023-02-02T06:35:33.488Z,2.93
2023-02-02T06:36:07.076Z,4.17
2023-02-02T06:36:39.359Z,4.23
2023-02-02T06:37:11.664Z,3.73
2023-02-02T06:37:43.956Z,3.67
2023-02-02T06:38:16.536Z,3.63
2023-02-02T06:38:50.259Z,3.87
2023-02-02T06:39:22.661Z,3.87
2023-02-02T06:39:55.020Z,4.37
2023-02-02T06:40:28.656Z,5.10
2023-02-02T06:41:02.226Z,4.40
2023-02-02T06:41:35.332Z,4.10
2023-02-02T06:42:20.477Z,3.80
2023-02-02T06:43:02.202Z,3.50
2023-02-02T06:43:34.710Z,3.27
2023-02-02T06:44:07.145Z,4.50
2023-02-02T06:44:39.417Z,5.20
2023-02-02T06:45:12.202Z,3.97
2023-02-02T06:45:44.755Z,3.20
2023-02-02T06:46:17.456Z,3.17
2023-02-02T06:46:49.812Z,7.40
2023-02-02T06:47:22.161Z,6.13
2023-02-02T06:47:58.267Z,5.37
2023-02-02T06:48:30.512Z,5.50
2023-02-02T06:49:02.810Z,5.20
2023-02-02T06:49:35.120Z,4.57
2023-02-02T06:50:07.836Z,4.37
2023-02-02T06:50:40.414Z,4.23
2023-02-02T06:51:12.795Z,4.27
2023-02-02T06:51:47.119Z,4.23
2023-02-02T06:52:19.877Z,8.43
2023-02-02T06:52:53.419Z,6.70
2023-02-02T06:53:26.699Z,7.03
2023-02-02T06:53:59.644Z,8.67
2023-02-02T06:54:32.178Z,6.20
2023-02-02T06:55:07.674Z,5.57
2023-02-02T06:55:40.506Z,5.07
2023-02-02T06:56:13.337Z,3.87
2023-02-02T06:56:45.661Z,3.43
2023-02-02T06:57:18.131Z,3.73
2023-02-02T06:57:57.629Z,3.77
2023-02-02T06:58:31.314Z,3.33
2023-02-02T06:59:03.785Z,3.33
2023-02-02T06:59:36.115Z,2.80
2023-02-02T07:00:09.115Z,2.93
2023-02-02T07:00:42.088Z,2.93
2023-02-02T07:01:14.960Z,3.27
2023-02-02T07:01:50.168Z,3.63
2023-02-02T07:02:23.553Z,4.27
2023-02-02T07:02:56.502Z,3.67
2023-02-02T07:03:31.934Z,3.60
2023-02-02T07:04:04.304Z,4.27
2023-02-02T07:04:36.683Z,4.20
2023-02-02T07:05:09.074Z,3.20
2023-02-02T07:05:41.747Z,2.87
2023-02-02T07:06:18.513Z,3.23
2023-02-02T07:06:50.805Z,2.80
2023-02-02T07:07:23.099Z,3.00
2023-02-02T07:07:55.619Z,2.63
2023-02-02T07:08:27.976Z,2.63
2023-02-02T07:09:02.609Z,2.83
2023-02-02T07:09:36.161Z,2.70
2023-02-02T07:10:08.892Z,3.13
2023-02-02T07:11:09.491Z,7.60
2023-02-02T07:11:47.238Z,17.60
2023-02-02T07:12:19.537Z,16.97
2023-02-02T07:12:54.260Z,9.87
2023-02-02T07:13:26.577Z,6.80
2023-02-02T07:14:00.907Z,5.40
2023-02-02T07:14:33.294Z,4.07
2023-02-02T07:15:07.334Z,3.30
2023-02-02T07:15:40.899Z,3.33
2023-02-02T07:16:14.364Z,2.87
2023-02-02T07:16:46.635Z,2.63
2023-02-02T07:17:18.944Z,7.83
2023-02-02T07:17:51.307Z,8.63
2023-02-02T07:18:24.160Z,4.33
2023-02-02T07:19:00.470Z,3.60
2023-02-02T07:19:33.630Z,4.17
2023-02-02T07:20:06.485Z,3.43
2023-02-02T07:20:38.850Z,3.13
2023-02-02T07:21:20.074Z,3.23
2023-02-02T07:21:52.435Z,3.07
2023-02-02T07:22:25.015Z,3.03
2023-02-02T07:22:57.293Z,3.03
2023-02-02T07:23:30.118Z,2.83
2023-02-02T07:24:03.811Z,2.43
2023-02-02T07:24:38.209Z,2.90
2023-02-02T07:25:10.489Z,2.50
2023-02-02T07:25:43.972Z,3.37
2023-02-02T07:26:19.050Z,3.37
2023-02-02T07:26:53.543Z,3.07
2023-02-02T07:27:25.987Z,3.13
2023-02-02T07:27:58.454Z,2.97
2023-02-02T07:28:30.956Z,3.10
2023-02-02T07:29:04.781Z,2.63
2023-02-02T07:29:37.215Z,2.50
2023-02-02T07:30:10.586Z,2.40
2023-02-02T07:30:42.994Z,3.87
2023-02-02T07:31:23.756Z,3.10
2023-02-02T07:31:56.141Z,5.20
2023-02-02T07:32:28.534Z,5.00
2023-02-02T07:33:01.932Z,4.43
2023-02-02T07:33:41.950Z,2.97
2023-02-02T07:34:14.503Z,2.40
2023-02-02T07:34:46.816Z,2.37
2023-02-02T07:35:19.254Z,2.53
2023-02-02T07:36:12.732Z,2.33
2023-02-02T07:36:46.363Z,2.70
2023-02-02T07:37:18.789Z,2.63
2023-02-02T07:37:53.612Z,2.67
2023-02-02T07:38:28.966Z,3.03
2023-02-02T07:39:05.010Z,3.20
2023-02-02T07:39:40.302Z,3.13
2023-02-02T07:40:13.214Z,2.73
2023-02-02T07:40:46.568Z,2.27
2023-02-02T07:41:18.953Z,2.73
2023-02-02T07:41:51.318Z,2.53
2023-02-02T07:42:23.623Z,3.50